sensor_id;sensor_type;location;lat;lon;timestamp;P1;durP1;ratioP1;P2;durP2;ratioP2
20480;SDS011;10399;50.754;3.366;2023-08-08T00:00:54;8.23;;;2.50;;
20480;SDS011;10399;50.754;3.366;2023-08-08T00:03:25;14.07;;;3.05;;
20480;SDS011;10399;50.754;3.366;2023-08-08T00:05:53;7.45;;;2.35;;
20480;SDS011;10399;50.754;3.366;2023-08-08T00:08:23;11.77;;;2.70;;
20480;SDS011;10399;50.754;3.366;2023-08-08T00:10:51;12.80;;;2.83;;
20480;SDS011;10399;50.754;3.366;2023-08-08T00:13:20;13.15;;;3.00;;
20480;SDS011;10399;50.754;3.366;2023-08-08T00:15:47;15.30;;;2.90;;
20480;SDS011;10399;50.754;3.366;2023-08-08T00:18:15;11.95;;;2.53;;
20480;SDS011;10399;50.754;3.366;2023-08-08T00:20:43;13.40;;;2.97;;
20480;SDS011;10399;50.754;3.366;2023-08-08T00:23:10;14.63;;;3.10;;
20480;SDS011;10399;50.754;3.366;2023-08-08T00:25:37;13.93;;;2.70;;
20480;SDS011;10399;50.754;3.366;2023-08-08T00:28:04;20.20;;;3.05;;
20480;SDS011;10399;50.754;3.366;2023-08-08T00:30:31;10.25;;;2.60;;
20480;SDS011;10399;50.754;3.366;2023-08-08T00:32:59;9.52;;;2.45;;
20480;SDS011;10399;50.754;3.366;2023-08-08T00:35:26;10.88;;;2.67;;
20480;SDS011;10399;50.754;3.366;2023-08-08T00:37:54;9.77;;;3.33;;
20480;SDS011;10399;50.754;3.366;2023-08-08T00:40:22;11.20;;;2.70;;
20480;SDS011;10399;50.754;3.366;2023-08-08T00:42:52;13.93;;;3.10;;
20480;SDS011;10399;50.754;3.366;2023-08-08T00:45:25;13.63;;;3.78;;
20480;SDS011;10399;50.754;3.366;2023-08-08T00:47:54;16.25;;;3.03;;
20480;SDS011;10399;50.754;3.366;2023-08-08T00:50:22;11.43;;;3.10;;
20480;SDS011;10399;50.754;3.366;2023-08-08T00:52:49;11.77;;;3.03;;
20480;SDS011;10399;50.754;3.366;2023-08-08T00:55:17;22.95;;;3.58;;
20480;SDS011;10399;50.754;3.366;2023-08-08T00:57:45;14.95;;;2.80;;
20480;SDS011;10399;50.754;3.366;2023-08-08T01:00:13;21.08;;;3.30;;
20480;SDS011;10399;50.754;3.366;2023-08-08T01:02:40;15.00;;;3.13;;
20480;SDS011;10399;50.754;3.366;2023-08-08T01:05:08;12.80;;;2.85;;
20480;SDS011;10399;50.754;3.366;2023-08-08T01:10:28;14.20;;;3.67;;
20480;SDS011;10399;50.754;3.366;2023-08-08T01:13:04;9.73;;;3.10;;
20480;SDS011;10399;50.754;3.366;2023-08-08T01:15:46;17.33;;;3.42;;
20480;SDS011;10399;50.754;3.366;2023-08-08T01:18:16;17.33;;;3.53;;
20480;SDS011;10399;50.754;3.366;2023-08-08T01:20:45;20.55;;;3.83;;
20480;SDS011;10399;50.754;3.366;2023-08-08T01:23:30;20.67;;;3.40;;
20480;SDS011;10399;50.754;3.366;2023-08-08T01:26:07;15.68;;;4.00;;
20480;SDS011;10399;50.754;3.366;2023-08-08T01:28:35;12.23;;;3.92;;
20480;SDS011;10399;50.754;3.366;2023-08-08T01:31:04;14.15;;;3.97;;
20480;SDS011;10399;50.754;3.366;2023-08-08T01:33:33;12.00;;;3.22;;
20480;SDS011;10399;50.754;3.366;2023-08-08T01:36:02;14.13;;;3.55;;
20480;SDS011;10399;50.754;3.366;2023-08-08T01:38:38;13.82;;;3.60;;
20480;SDS011;10399;50.754;3.366;2023-08-08T01:41:08;14.10;;;3.60;;
20480;SDS011;10399;50.754;3.366;2023-08-08T01:43:39;15.40;;;4.13;;
20480;SDS011;10399;50.754;3.366;2023-08-08T01:46:07;19.02;;;3.72;;
20480;SDS011;10399;50.754;3.366;2023-08-08T01:48:38;13.52;;;3.17;;
20480;SDS011;10399;50.754;3.366;2023-08-08T01:51:05;16.40;;;3.80;;
20480;SDS011;10399;50.754;3.366;2023-08-08T01:53:35;15.50;;;3.28;;
20480;SDS011;10399;50.754;3.366;2023-08-08T01:56:02;19.33;;;4.22;;
20480;SDS011;10399;50.754;3.366;2023-08-08T01:58:30;16.77;;;4.35;;
20480;SDS011;10399;50.754;3.366;2023-08-08T02:00:57;18.80;;;4.05;;
20480;SDS011;10399;50.754;3.366;2023-08-08T02:03:26;17.58;;;4.50;;
20480;SDS011;10399;50.754;3.366;2023-08-08T02:05:53;14.55;;;3.40;;
20480;SDS011;10399;50.754;3.366;2023-08-08T02:08:21;15.48;;;3.25;;
20480;SDS011;10399;50.754;3.366;2023-08-08T02:10:52;21.88;;;4.25;;
20480;SDS011;10399;50.754;3.366;2023-08-08T02:13:20;20.65;;;3.53;;
20480;SDS011;10399;50.754;3.366;2023-08-08T02:15:48;19.75;;;3.95;;
20480;SDS011;10399;50.754;3.366;2023-08-08T02:18:16;22.33;;;4.57;;
20480;SDS011;10399;50.754;3.366;2023-08-08T02:20:46;15.32;;;3.72;;
20480;SDS011;10399;50.754;3.366;2023-08-08T02:23:14;19.27;;;4.03;;
20480;SDS011;10399;50.754;3.366;2023-08-08T02:25:41;17.88;;;4.05;;
20480;SDS011;10399;50.754;3.366;2023-08-08T02:28:08;15.23;;;3.97;;
20480;SDS011;10399;50.754;3.366;2023-08-08T02:30:36;15.27;;;3.65;;
20480;SDS011;10399;50.754;3.366;2023-08-08T02:33:04;13.68;;;3.88;;
20480;SDS011;10399;50.754;3.366;2023-08-08T02:35:31;13.80;;;3.95;;
20480;SDS011;10399;50.754;3.366;2023-08-08T02:37:58;15.50;;;4.07;;
20480;SDS011;10399;50.754;3.366;2023-08-08T02:40:26;18.88;;;3.67;;
20480;SDS011;10399;50.754;3.366;2023-08-08T02:42:53;15.90;;;3.95;;
20480;SDS011;10399;50.754;3.366;2023-08-08T02:45:20;21.88;;;4.10;;
20480;SDS011;10399;50.754;3.366;2023-08-08T02:47:47;19.25;;;3.65;;
20480;SDS011;10399;50.754;3.366;2023-08-08T02:50:15;14.77;;;4.75;;
20480;SDS011;10399;50.754;3.366;2023-08-08T02:52:44;18.23;;;3.75;;
20480;SDS011;10399;50.754;3.366;2023-08-08T02:55:11;15.27;;;3.47;;
20480;SDS011;10399;50.754;3.366;2023-08-08T02:57:39;13.57;;;4.30;;
20480;SDS011;10399;50.754;3.366;2023-08-08T03:00:07;18.42;;;4.32;;
20480;SDS011;10399;50.754;3.366;2023-08-08T03:02:34;15.20;;;3.67;;
20480;SDS011;10399;50.754;3.366;2023-08-08T03:05:02;17.42;;;4.28;;
20480;SDS011;10399;50.754;3.366;2023-08-08T03:07:30;25.40;;;5.00;;
20480;SDS011;10399;50.754;3.366;2023-08-08T03:09:59;17.17;;;4.28;;
20480;SDS011;10399;50.754;3.366;2023-08-08T03:12:27;19.80;;;3.75;;
20480;SDS011;10399;50.754;3.366;2023-08-08T03:14:54;17.30;;;3.58;;
20480;SDS011;10399;50.754;3.366;2023-08-08T03:17:23;16.58;;;3.60;;
20480;SDS011;10399;50.754;3.366;2023-08-08T03:19:51;18.23;;;4.10;;
20480;SDS011;10399;50.754;3.366;2023-08-08T03:22:18;18.48;;;3.80;;
20480;SDS011;10399;50.754;3.366;2023-08-08T03:24:46;25.95;;;4.32;;
20480;SDS011;10399;50.754;3.366;2023-08-08T05:24:02;16.15;;;3.70;;
20480;SDS011;10399;50.754;3.366;2023-08-08T05:26:31;19.42;;;3.50;;
20480;SDS011;10399;50.754;3.366;2023-08-08T05:28:58;17.50;;;3.70;;
20480;SDS011;10399;50.754;3.366;2023-08-08T05:31:26;17.02;;;3.95;;
20480;SDS011;10399;50.754;3.366;2023-08-08T05:34:00;12.60;;;3.97;;
20480;SDS011;10399;50.754;3.366;2023-08-08T05:36:41;13.32;;;4.03;;
20480;SDS011;10399;50.754;3.366;2023-08-08T05:39:09;17.88;;;3.90;;
20480;SDS011;10399;50.754;3.366;2023-08-08T05:41:39;19.30;;;4.72;;
20480;SDS011;10399;50.754;3.366;2023-08-08T05:44:06;21.60;;;4.30;;
20480;SDS011;10399;50.754;3.366;2023-08-08T05:46:34;26.60;;;4.10;;
20480;SDS011;10399;50.754;3.366;2023-08-08T05:49:04;13.57;;;4.13;;
20480;SDS011;10399;50.754;3.366;2023-08-08T05:51:33;20.58;;;4.63;;
20480;SDS011;10399;50.754;3.366;2023-08-08T05:54:01;19.95;;;4.13;;
20480;SDS011;10399;50.754;3.366;2023-08-08T05:56:36;16.25;;;3.85;;
20480;SDS011;10399;50.754;3.366;2023-08-08T05:59:04;19.15;;;3.95;;
20480;SDS011;10399;50.754;3.366;2023-08-08T06:01:32;18.15;;;3.78;;
20480;SDS011;10399;50.754;3.366;2023-08-08T06:04:01;21.48;;;3.63;;
20480;SDS011;10399;50.754;3.366;2023-08-08T06:06:29;18.17;;;3.42;;
20480;SDS011;10399;50.754;3.366;2023-08-08T06:08:56;15.57;;;3.50;;
20480;SDS011;10399;50.754;3.366;2023-08-08T06:11:23;17.55;;;4.50;;
20480;SDS011;10399;50.754;3.366;2023-08-08T06:13:51;15.20;;;3.40;;
20480;SDS011;10399;50.754;3.366;2023-08-08T06:16:18;21.30;;;3.90;;
20480;SDS011;10399;50.754;3.366;2023-08-08T06:18:45;18.30;;;3.97;;
20480;SDS011;10399;50.754;3.366;2023-08-08T06:21:12;17.85;;;4.20;;
20480;SDS011;10399;50.754;3.366;2023-08-08T06:23:39;12.13;;;2.75;;
20480;SDS011;10399;50.754;3.366;2023-08-08T06:26:07;14.82;;;4.03;;
20480;SDS011;10399;50.754;3.366;2023-08-08T06:28:34;19.05;;;3.80;;
20480;SDS011;10399;50.754;3.366;2023-08-08T06:31:03;18.67;;;4.38;;
20480;SDS011;10399;50.754;3.366;2023-08-08T06:33:30;12.80;;;3.72;;
20480;SDS011;10399;50.754;3.366;2023-08-08T06:35:57;19.40;;;3.88;;
20480;SDS011;10399;50.754;3.366;2023-08-08T06:38:24;14.93;;;3.45;;
20480;SDS011;10399;50.754;3.366;2023-08-08T06:40:51;12.73;;;3.55;;
20480;SDS011;10399;50.754;3.366;2023-08-08T06:43:18;15.55;;;3.83;;
20480;SDS011;10399;50.754;3.366;2023-08-08T06:45:45;13.43;;;3.30;;
20480;SDS011;10399;50.754;3.366;2023-08-08T06:48:13;24.73;;;4.37;;
20480;SDS011;10399;50.754;3.366;2023-08-08T06:50:42;16.70;;;3.33;;
20480;SDS011;10399;50.754;3.366;2023-08-08T06:53:10;17.85;;;3.60;;
20480;SDS011;10399;50.754;3.366;2023-08-08T06:55:38;13.57;;;3.25;;
20480;SDS011;10399;50.754;3.366;2023-08-08T06:58:05;14.75;;;3.13;;
20480;SDS011;10399;50.754;3.366;2023-08-08T07:00:32;12.02;;;3.30;;
20480;SDS011;10399;50.754;3.366;2023-08-08T07:02:59;13.00;;;2.80;;
20480;SDS011;10399;50.754;3.366;2023-08-08T07:05:28;13.57;;;3.33;;
20480;SDS011;10399;50.754;3.366;2023-08-08T07:07:56;10.38;;;3.20;;
20480;SDS011;10399;50.754;3.366;2023-08-08T07:10:27;11.60;;;3.30;;
20480;SDS011;10399;50.754;3.366;2023-08-08T07:12:55;15.52;;;3.05;;
20480;SDS011;10399;50.754;3.366;2023-08-08T07:15:22;14.32;;;3.13;;
20480;SDS011;10399;50.754;3.366;2023-08-08T07:17:50;11.38;;;3.08;;
20480;SDS011;10399;50.754;3.366;2023-08-08T07:20:17;11.88;;;2.55;;
20480;SDS011;10399;50.754;3.366;2023-08-08T07:22:44;9.77;;;2.90;;
20480;SDS011;10399;50.754;3.366;2023-08-08T07:25:12;13.80;;;3.28;;
20480;SDS011;10399;50.754;3.366;2023-08-08T07:27:41;8.70;;;2.92;;
20480;SDS011;10399;50.754;3.366;2023-08-08T07:30:09;11.55;;;3.22;;
20480;SDS011;10399;50.754;3.366;2023-08-08T07:32:36;11.05;;;2.65;;
20480;SDS011;10399;50.754;3.366;2023-08-08T07:35:04;13.40;;;2.35;;
20480;SDS011;10399;50.754;3.366;2023-08-08T07:37:32;13.60;;;2.30;;
20480;SDS011;10399;50.754;3.366;2023-08-08T07:40:00;13.32;;;3.00;;
20480;SDS011;10399;50.754;3.366;2023-08-08T07:42:27;7.80;;;2.25;;
20480;SDS011;10399;50.754;3.366;2023-08-08T07:44:55;8.55;;;2.40;;
20480;SDS011;10399;50.754;3.366;2023-08-08T07:47:22;6.40;;;2.17;;
20480;SDS011;10399;50.754;3.366;2023-08-08T07:49:50;13.48;;;3.47;;
20480;SDS011;10399;50.754;3.366;2023-08-08T07:52:17;11.20;;;2.40;;
20480;SDS011;10399;50.754;3.366;2023-08-08T07:54:44;12.68;;;2.28;;
20480;SDS011;10399;50.754;3.366;2023-08-08T07:57:11;5.35;;;2.17;;
20480;SDS011;10399;50.754;3.366;2023-08-08T07:59:39;4.85;;;2.13;;
20480;SDS011;10399;50.754;3.366;2023-08-08T08:02:06;6.35;;;2.20;;
20480;SDS011;10399;50.754;3.366;2023-08-08T08:04:34;7.47;;;2.25;;
20480;SDS011;10399;50.754;3.366;2023-08-08T08:07:02;9.80;;;2.50;;
20480;SDS011;10399;50.754;3.366;2023-08-08T08:09:30;7.38;;;2.50;;
20480;SDS011;10399;50.754;3.366;2023-08-08T08:11:57;9.90;;;2.80;;
20480;SDS011;10399;50.754;3.366;2023-08-08T08:14:27;8.75;;;2.80;;
20480;SDS011;10399;50.754;3.366;2023-08-08T08:16:55;8.07;;;2.20;;
20480;SDS011;10399;50.754;3.366;2023-08-08T08:19:22;11.35;;;2.75;;
20480;SDS011;10399;50.754;3.366;2023-08-08T08:21:53;8.80;;;2.55;;
20480;SDS011;10399;50.754;3.366;2023-08-08T08:24:20;5.22;;;2.00;;
20480;SDS011;10399;50.754;3.366;2023-08-08T08:26:50;10.07;;;2.40;;
20480;SDS011;10399;50.754;3.366;2023-08-08T08:29:18;8.10;;;2.53;;
20480;SDS011;10399;50.754;3.366;2023-08-08T08:31:46;7.80;;;2.67;;
20480;SDS011;10399;50.754;3.366;2023-08-08T08:34:14;10.68;;;2.40;;
20480;SDS011;10399;50.754;3.366;2023-08-08T08:36:41;6.40;;;2.58;;
20480;SDS011;10399;50.754;3.366;2023-08-08T08:39:11;5.13;;;1.85;;
20480;SDS011;10399;50.754;3.366;2023-08-08T08:41:38;8.65;;;2.03;;
20480;SDS011;10399;50.754;3.366;2023-08-08T08:44:05;4.28;;;1.95;;
20480;SDS011;10399;50.754;3.366;2023-08-08T08:46:39;10.35;;;2.50;;
20480;SDS011;10399;50.754;3.366;2023-08-08T08:49:07;8.32;;;2.17;;
20480;SDS011;10399;50.754;3.366;2023-08-08T08:51:39;14.13;;;2.33;;
20480;SDS011;10399;50.754;3.366;2023-08-08T08:54:06;6.63;;;1.92;;
20480;SDS011;10399;50.754;3.366;2023-08-08T08:56:35;7.80;;;1.90;;
20480;SDS011;10399;50.754;3.366;2023-08-08T08:59:11;6.93;;;2.20;;
20480;SDS011;10399;50.754;3.366;2023-08-08T09:01:38;7.07;;;2.10;;
20480;SDS011;10399;50.754;3.366;2023-08-08T09:04:06;8.48;;;2.17;;
20480;SDS011;10399;50.754;3.366;2023-08-08T09:06:35;9.90;;;2.17;;
20480;SDS011;10399;50.754;3.366;2023-08-08T09:09:04;5.82;;;2.17;;
20480;SDS011;10399;50.754;3.366;2023-08-08T09:11:42;4.00;;;1.60;;
20480;SDS011;10399;50.754;3.366;2023-08-08T09:14:21;5.60;;;1.77;;
20480;SDS011;10399;50.754;3.366;2023-08-08T09:16:50;6.90;;;1.77;;
20480;SDS011;10399;50.754;3.366;2023-08-08T09:19:23;5.53;;;2.25;;
20480;SDS011;10399;50.754;3.366;2023-08-08T09:21:51;5.47;;;2.20;;
20480;SDS011;10399;50.754;3.366;2023-08-08T09:24:20;6.72;;;1.92;;
20480;SDS011;10399;50.754;3.366;2023-08-08T09:26:51;7.03;;;1.77;;
20480;SDS011;10399;50.754;3.366;2023-08-08T09:29:19;4.80;;;2.00;;
20480;SDS011;10399;50.754;3.366;2023-08-08T09:31:47;10.90;;;1.95;;
20480;SDS011;10399;50.754;3.366;2023-08-08T09:34:16;6.28;;;1.90;;
20480;SDS011;10399;50.754;3.366;2023-08-08T09:36:44;5.93;;;1.60;;
20480;SDS011;10399;50.754;3.366;2023-08-08T09:39:11;4.93;;;1.98;;
20480;SDS011;10399;50.754;3.366;2023-08-08T09:41:39;3.58;;;1.60;;
20480;SDS011;10399;50.754;3.366;2023-08-08T09:44:07;7.45;;;1.95;;
20480;SDS011;10399;50.754;3.366;2023-08-08T09:46:37;6.00;;;2.28;;
20480;SDS011;10399;50.754;3.366;2023-08-08T09:49:06;7.03;;;2.00;;
20480;SDS011;10399;50.754;3.366;2023-08-08T09:51:33;4.07;;;1.50;;
20480;SDS011;10399;50.754;3.366;2023-08-08T09:54:00;2.72;;;1.75;;
20480;SDS011;10399;50.754;3.366;2023-08-08T09:56:34;9.55;;;2.05;;
20480;SDS011;10399;50.754;3.366;2023-08-08T09:59:02;2.78;;;1.58;;
20480;SDS011;10399;50.754;3.366;2023-08-08T10:01:31;6.00;;;1.67;;
20480;SDS011;10399;50.754;3.366;2023-08-08T10:04:03;4.18;;;1.60;;
20480;SDS011;10399;50.754;3.366;2023-08-08T10:06:32;3.92;;;1.60;;
20480;SDS011;10399;50.754;3.366;2023-08-08T10:09:01;3.05;;;1.73;;
20480;SDS011;10399;50.754;3.366;2023-08-08T10:11:31;2.50;;;1.23;;
20480;SDS011;10399;50.754;3.366;2023-08-08T10:14:01;5.90;;;1.40;;
20480;SDS011;10399;50.754;3.366;2023-08-08T10:16:34;4.95;;;1.40;;
20480;SDS011;10399;50.754;3.366;2023-08-08T10:19:02;2.92;;;1.25;;
20480;SDS011;10399;50.754;3.366;2023-08-08T10:21:34;3.47;;;1.10;;
20480;SDS011;10399;50.754;3.366;2023-08-08T10:24:06;4.45;;;1.08;;
20480;SDS011;10399;50.754;3.366;2023-08-08T10:26:52;4.90;;;1.63;;
20480;SDS011;10399;50.754;3.366;2023-08-08T10:29:27;4.00;;;1.38;;
20480;SDS011;10399;50.754;3.366;2023-08-08T10:37:10;3.97;;;1.30;;
20480;SDS011;10399;50.754;3.366;2023-08-08T10:42:42;4.05;;;1.80;;
20480;SDS011;10399;50.754;3.366;2023-08-08T10:45:11;3.33;;;1.25;;
20480;SDS011;10399;50.754;3.366;2023-08-08T10:47:40;3.78;;;1.30;;
20480;SDS011;10399;50.754;3.366;2023-08-08T10:50:16;5.10;;;1.40;;
20480;SDS011;10399;50.754;3.366;2023-08-08T10:55:22;2.10;;;1.20;;
20480;SDS011;10399;50.754;3.366;2023-08-08T10:57:53;4.03;;;1.52;;
20480;SDS011;10399;50.754;3.366;2023-08-08T11:00:24;5.60;;;1.70;;
20480;SDS011;10399;50.754;3.366;2023-08-08T11:02:54;4.30;;;1.70;;
20480;SDS011;10399;50.754;3.366;2023-08-08T11:05:22;3.78;;;1.60;;
20480;SDS011;10399;50.754;3.366;2023-08-08T11:07:50;3.75;;;1.50;;
20480;SDS011;10399;50.754;3.366;2023-08-08T11:10:18;4.13;;;1.70;;
20480;SDS011;10399;50.754;3.366;2023-08-08T11:12:59;3.63;;;1.35;;
20480;SDS011;10399;50.754;3.366;2023-08-08T11:15:28;3.13;;;1.20;;
20480;SDS011;10399;50.754;3.366;2023-08-08T11:17:57;6.03;;;1.70;;
20480;SDS011;10399;50.754;3.366;2023-08-08T11:20:28;3.10;;;1.25;;
20480;SDS011;10399;50.754;3.366;2023-08-08T11:23:00;2.22;;;1.27;;
20480;SDS011;10399;50.754;3.366;2023-08-08T11:25:28;2.00;;;1.25;;
20480;SDS011;10399;50.754;3.366;2023-08-08T11:28:00;2.40;;;1.20;;
20480;SDS011;10399;50.754;3.366;2023-08-08T11:30:29;5.55;;;1.40;;
20480;SDS011;10399;50.754;3.366;2023-08-08T11:33:00;5.10;;;1.40;;
20480;SDS011;10399;50.754;3.366;2023-08-08T11:35:31;5.75;;;1.40;;
20480;SDS011;10399;50.754;3.366;2023-08-08T11:38:00;3.20;;;1.20;;
20480;SDS011;10399;50.754;3.366;2023-08-08T11:40:29;2.63;;;1.30;;
20480;SDS011;10399;50.754;3.366;2023-08-08T11:42:58;3.15;;;1.10;;
20480;SDS011;10399;50.754;3.366;2023-08-08T11:45:26;4.05;;;1.27;;
20480;SDS011;10399;50.754;3.366;2023-08-08T11:47:55;4.53;;;1.65;;
20480;SDS011;10399;50.754;3.366;2023-08-08T11:50:24;4.00;;;1.58;;
20480;SDS011;10399;50.754;3.366;2023-08-08T11:52:54;1.38;;;1.20;;
20480;SDS011;10399;50.754;3.366;2023-08-08T11:55:28;2.55;;;1.20;;
20480;SDS011;10399;50.754;3.366;2023-08-08T11:57:56;3.22;;;1.50;;
20480;SDS011;10399;50.754;3.366;2023-08-08T12:00:29;3.25;;;1.10;;
20480;SDS011;10399;50.754;3.366;2023-08-08T12:02:58;1.33;;;0.82;;
20480;SDS011;10399;50.754;3.366;2023-08-08T12:05:35;2.35;;;0.90;;
20480;SDS011;10399;50.754;3.366;2023-08-08T12:08:06;2.33;;;1.00;;
20480;SDS011;10399;50.754;3.366;2023-08-08T12:10:35;2.88;;;1.33;;
20480;SDS011;10399;50.754;3.366;2023-08-08T12:13:03;2.65;;;0.98;;
20480;SDS011;10399;50.754;3.366;2023-08-08T12:15:31;1.88;;;0.85;;
20480;SDS011;10399;50.754;3.366;2023-08-08T12:18:00;3.05;;;1.00;;
20480;SDS011;10399;50.754;3.366;2023-08-08T12:20:31;1.55;;;1.02;;
20480;SDS011;10399;50.754;3.366;2023-08-08T12:22:59;1.42;;;0.93;;
20480;SDS011;10399;50.754;3.366;2023-08-08T12:25:26;2.83;;;0.95;;
20480;SDS011;10399;50.754;3.366;2023-08-08T12:27:54;2.72;;;1.10;;
20480;SDS011;10399;50.754;3.366;2023-08-08T12:30:24;3.83;;;1.30;;
20480;SDS011;10399;50.754;3.366;2023-08-08T12:32:56;5.63;;;1.50;;
20480;SDS011;10399;50.754;3.366;2023-08-08T12:35:23;2.75;;;0.90;;
20480;SDS011;10399;50.754;3.366;2023-08-08T12:37:53;2.75;;;0.98;;
20480;SDS011;10399;50.754;3.366;2023-08-08T12:40:20;3.97;;;1.10;;
20480;SDS011;10399;50.754;3.366;2023-08-08T12:42:47;1.30;;;0.90;;
20480;SDS011;10399;50.754;3.366;2023-08-08T12:45:15;2.80;;;1.13;;
20480;SDS011;10399;50.754;3.366;2023-08-08T12:47:44;2.53;;;1.05;;
20480;SDS011;10399;50.754;3.366;2023-08-08T12:50:14;4.32;;;1.00;;
20480;SDS011;10399;50.754;3.366;2023-08-08T12:52:42;1.50;;;1.10;;
20480;SDS011;10399;50.754;3.366;2023-08-08T12:55:10;2.47;;;1.10;;
20480;SDS011;10399;50.754;3.366;2023-08-08T12:57:38;2.90;;;0.90;;
20480;SDS011;10399;50.754;3.366;2023-08-08T13:00:07;2.35;;;1.05;;
20480;SDS011;10399;50.754;3.366;2023-08-08T13:02:43;2.63;;;1.25;;
20480;SDS011;10399;50.754;3.366;2023-08-08T13:05:10;5.22;;;1.20;;
20480;SDS011;10399;50.754;3.366;2023-08-08T13:07:39;2.90;;;1.13;;
20480;SDS011;10399;50.754;3.366;2023-08-08T13:10:06;1.83;;;1.10;;
20480;SDS011;10399;50.754;3.366;2023-08-08T13:12:34;3.20;;;1.38;;
20480;SDS011;10399;50.754;3.366;2023-08-08T13:15:05;2.15;;;0.93;;
20480;SDS011;10399;50.754;3.366;2023-08-08T13:17:35;3.63;;;1.27;;
20480;SDS011;10399;50.754;3.366;2023-08-08T13:20:03;3.67;;;1.17;;
20480;SDS011;10399;50.754;3.366;2023-08-08T13:22:31;3.22;;;1.33;;
20480;SDS011;10399;50.754;3.366;2023-08-08T13:24:58;3.25;;;1.23;;
20480;SDS011;10399;50.754;3.366;2023-08-08T13:27:25;3.20;;;1.27;;
20480;SDS011;10399;50.754;3.366;2023-08-08T13:29:52;2.33;;;1.20;;
20480;SDS011;10399;50.754;3.366;2023-08-08T13:32:20;4.95;;;1.05;;
20480;SDS011;10399;50.754;3.366;2023-08-08T13:34:48;2.67;;;1.30;;
20480;SDS011;10399;50.754;3.366;2023-08-08T13:37:15;2.90;;;1.25;;
20480;SDS011;10399;50.754;3.366;2023-08-08T13:39:42;3.00;;;1.40;;
20480;SDS011;10399;50.754;3.366;2023-08-08T13:42:10;2.40;;;0.90;;
20480;SDS011;10399;50.754;3.366;2023-08-08T13:47:04;1.90;;;1.20;;
20480;SDS011;10399;50.754;3.366;2023-08-08T13:49:33;2.05;;;1.20;;
20480;SDS011;10399;50.754;3.366;2023-08-08T14:56:18;2.75;;;1.20;;
20480;SDS011;10399;50.754;3.366;2023-08-08T14:58:46;5.47;;;1.50;;
20480;SDS011;10399;50.754;3.366;2023-08-08T15:01:13;5.32;;;1.90;;
20480;SDS011;10399;50.754;3.366;2023-08-08T15:03:42;7.10;;;1.90;;
20480;SDS011;10399;50.754;3.366;2023-08-08T15:06:10;4.25;;;1.30;;
20480;SDS011;10399;50.754;3.366;2023-08-08T15:08:41;3.13;;;1.60;;
20480;SDS011;10399;50.754;3.366;2023-08-08T15:11:11;3.90;;;1.48;;
20480;SDS011;10399;50.754;3.366;2023-08-08T15:13:38;8.00;;;1.50;;
20480;SDS011;10399;50.754;3.366;2023-08-08T15:16:06;8.13;;;1.88;;
20480;SDS011;10399;50.754;3.366;2023-08-08T15:18:33;6.72;;;1.80;;
20480;SDS011;10399;50.754;3.366;2023-08-08T15:21:03;5.53;;;1.70;;
20480;SDS011;10399;50.754;3.366;2023-08-08T15:23:30;6.60;;;2.13;;
20480;SDS011;10399;50.754;3.366;2023-08-08T15:25:59;4.32;;;1.42;;
20480;SDS011;10399;50.754;3.366;2023-08-08T15:28:26;5.43;;;1.58;;
20480;SDS011;10399;50.754;3.366;2023-08-08T15:30:54;3.22;;;1.60;;
20480;SDS011;10399;50.754;3.366;2023-08-08T15:33:21;6.30;;;1.83;;
20480;SDS011;10399;50.754;3.366;2023-08-08T15:35:49;6.07;;;1.85;;
20480;SDS011;10399;50.754;3.366;2023-08-08T15:38:19;4.78;;;1.92;;
20480;SDS011;10399;50.754;3.366;2023-08-08T15:40:50;3.55;;;1.80;;
20480;SDS011;10399;50.754;3.366;2023-08-08T15:43:17;5.93;;;1.83;;
20480;SDS011;10399;50.754;3.366;2023-08-08T15:45:50;3.72;;;1.67;;
20480;SDS011;10399;50.754;3.366;2023-08-08T15:48:23;5.80;;;2.05;;
20480;SDS011;10399;50.754;3.366;2023-08-08T15:50:52;8.80;;;2.40;;
20480;SDS011;10399;50.754;3.366;2023-08-08T15:53:24;4.88;;;1.60;;
20480;SDS011;10399;50.754;3.366;2023-08-08T15:55:54;5.70;;;1.77;;
20480;SDS011;10399;50.754;3.366;2023-08-08T15:58:21;5.80;;;1.50;;
20480;SDS011;10399;50.754;3.366;2023-08-08T16:00:48;8.75;;;1.92;;
20480;SDS011;10399;50.754;3.366;2023-08-08T16:03:17;3.47;;;1.40;;
20480;SDS011;10399;50.754;3.366;2023-08-08T16:05:45;4.65;;;1.42;;
20480;SDS011;10399;50.754;3.366;2023-08-08T16:08:12;4.93;;;1.30;;
20480;SDS011;10399;50.754;3.366;2023-08-08T16:10:42;3.42;;;1.40;;
20480;SDS011;10399;50.754;3.366;2023-08-08T16:13:12;4.88;;;1.52;;
20480;SDS011;10399;50.754;3.366;2023-08-08T16:15:39;5.00;;;1.50;;
20480;SDS011;10399;50.754;3.366;2023-08-08T16:18:08;4.63;;;1.10;;
20480;SDS011;10399;50.754;3.366;2023-08-08T16:20:35;12.80;;;1.45;;
20480;SDS011;10399;50.754;3.366;2023-08-08T16:23:02;8.43;;;1.63;;
20480;SDS011;10399;50.754;3.366;2023-08-08T16:25:33;3.63;;;1.55;;
20480;SDS011;10399;50.754;3.366;2023-08-08T16:28:00;5.70;;;1.38;;
20480;SDS011;10399;50.754;3.366;2023-08-08T16:30:29;3.95;;;1.23;;
20480;SDS011;10399;50.754;3.366;2023-08-08T16:32:56;7.00;;;1.83;;
20480;SDS011;10399;50.754;3.366;2023-08-08T16:35:24;5.25;;;1.40;;
20480;SDS011;10399;50.754;3.366;2023-08-08T16:37:51;2.88;;;1.30;;
20480;SDS011;10399;50.754;3.366;2023-08-08T16:40:19;4.72;;;1.55;;
20480;SDS011;10399;50.754;3.366;2023-08-08T16:42:47;3.40;;;1.33;;
20480;SDS011;10399;50.754;3.366;2023-08-08T16:45:14;5.47;;;1.48;;
20480;SDS011;10399;50.754;3.366;2023-08-08T16:47:41;4.35;;;1.40;;
20480;SDS011;10399;50.754;3.366;2023-08-08T16:50:08;4.93;;;1.40;;
20480;SDS011;10399;50.754;3.366;2023-08-08T16:52:36;4.80;;;1.27;;
20480;SDS011;10399;50.754;3.366;2023-08-08T16:55:03;4.85;;;1.00;;
20480;SDS011;10399;50.754;3.366;2023-08-08T16:57:31;4.90;;;1.50;;
20480;SDS011;10399;50.754;3.366;2023-08-08T16:59:59;3.17;;;1.38;;
20480;SDS011;10399;50.754;3.366;2023-08-08T17:02:28;4.25;;;1.45;;
20480;SDS011;10399;50.754;3.366;2023-08-08T17:04:55;3.45;;;1.10;;
20480;SDS011;10399;50.754;3.366;2023-08-08T17:07:23;5.10;;;1.40;;
20480;SDS011;10399;50.754;3.366;2023-08-08T17:09:51;2.80;;;1.20;;
20480;SDS011;10399;50.754;3.366;2023-08-08T17:12:21;3.78;;;1.30;;
20480;SDS011;10399;50.754;3.366;2023-08-08T17:14:49;10.52;;;1.90;;
20480;SDS011;10399;50.754;3.366;2023-08-08T17:17:16;4.70;;;1.30;;
20480;SDS011;10399;50.754;3.366;2023-08-08T17:19:46;4.85;;;1.52;;
20480;SDS011;10399;50.754;3.366;2023-08-08T17:22:14;3.92;;;1.35;;
20480;SDS011;10399;50.754;3.366;2023-08-08T17:24:44;1.35;;;1.02;;
20480;SDS011;10399;50.754;3.366;2023-08-08T17:27:11;8.82;;;1.50;;
20480;SDS011;10399;50.754;3.366;2023-08-08T17:29:38;6.55;;;1.65;;
20480;SDS011;10399;50.754;3.366;2023-08-08T17:32:06;9.45;;;1.85;;
20480;SDS011;10399;50.754;3.366;2023-08-08T17:34:35;6.28;;;2.20;;
20480;SDS011;10399;50.754;3.366;2023-08-08T17:37:02;3.50;;;1.20;;
20480;SDS011;10399;50.754;3.366;2023-08-08T17:39:30;5.43;;;1.40;;
20480;SDS011;10399;50.754;3.366;2023-08-08T17:41:58;2.47;;;1.20;;
20480;SDS011;10399;50.754;3.366;2023-08-08T17:44:25;4.55;;;1.45;;
20480;SDS011;10399;50.754;3.366;2023-08-08T17:46:53;5.13;;;1.30;;
20480;SDS011;10399;50.754;3.366;2023-08-08T17:49:20;5.30;;;1.35;;
20480;SDS011;10399;50.754;3.366;2023-08-08T17:51:50;3.88;;;1.50;;
20480;SDS011;10399;50.754;3.366;2023-08-08T17:54:18;5.50;;;1.60;;
20480;SDS011;10399;50.754;3.366;2023-08-08T17:56:45;8.27;;;1.80;;
20480;SDS011;10399;50.754;3.366;2023-08-08T17:59:12;2.95;;;1.58;;
20480;SDS011;10399;50.754;3.366;2023-08-08T18:01:39;7.47;;;1.77;;
20480;SDS011;10399;50.754;3.366;2023-08-08T18:04:08;8.77;;;1.65;;
20480;SDS011;10399;50.754;3.366;2023-08-08T18:06:36;4.53;;;1.55;;
20480;SDS011;10399;50.754;3.366;2023-08-08T18:09:04;3.20;;;1.52;;